sensor_id;sensor_type;location;lat;lon;timestamp;P1;durP1;ratioP1;P2;durP2;ratioP2
44462;SDS011;30170;52.190;8.702;2022-09-13T00:01:26;2.42;;;1.73;;
44462;SDS011;30170;52.190;8.702;2022-09-13T00:03:52;2.63;;;1.58;;
44462;SDS011;30170;52.190;8.702;2022-09-13T00:06:20;1.88;;;1.40;;
44462;SDS011;30170;52.190;8.702;2022-09-13T00:08:47;2.00;;;1.30;;
44462;SDS011;30170;52.190;8.702;2022-09-13T00:11:16;1.95;;;1.27;;
44462;SDS011;30170;52.190;8.702;2022-09-13T00:13:51;1.70;;;1.33;;
44462;SDS011;30170;52.190;8.702;2022-09-13T00:16:19;2.50;;;1.58;;
44462;SDS011;30170;52.190;8.702;2022-09-13T00:18:48;2.10;;;1.30;;
44462;SDS011;30170;52.190;8.702;2022-09-13T00:21:16;1.90;;;1.58;;
44462;SDS011;30170;52.190;8.702;2022-09-13T00:23:45;2.47;;;1.35;;
44462;SDS011;30170;52.190;8.702;2022-09-13T00:26:14;1.98;;;1.30;;
44462;SDS011;30170;52.190;8.702;2022-09-13T00:28:43;1.98;;;1.30;;
44462;SDS011;30170;52.190;8.702;2022-09-13T00:31:13;2.10;;;1.40;;
44462;SDS011;30170;52.190;8.702;2022-09-13T00:33:40;3.08;;;1.70;;
44462;SDS011;30170;52.190;8.702;2022-09-13T00:36:07;2.38;;;1.65;;
44462;SDS011;30170;52.190;8.702;2022-09-13T00:38:37;2.03;;;1.27;;
44462;SDS011;30170;52.190;8.702;2022-09-13T00:41:05;2.00;;;1.35;;
44462;SDS011;30170;52.190;8.702;2022-09-13T00:43:40;2.25;;;1.30;;
44462;SDS011;30170;52.190;8.702;2022-09-13T00:46:09;2.53;;;1.50;;
44462;SDS011;30170;52.190;8.702;2022-09-13T00:48:41;2.22;;;1.60;;
44462;SDS011;30170;52.190;8.702;2022-09-13T00:51:09;1.63;;;1.10;;
44462;SDS011;30170;52.190;8.702;2022-09-13T00:53:38;2.88;;;1.50;;
44462;SDS011;30170;52.190;8.702;2022-09-13T00:56:09;1.77;;;1.42;;
44462;SDS011;30170;52.190;8.702;2022-09-13T00:58:42;2.38;;;1.50;;
44462;SDS011;30170;52.190;8.702;2022-09-13T01:01:17;2.55;;;1.80;;
44462;SDS011;30170;52.190;8.702;2022-09-13T01:03:45;2.22;;;1.42;;
44462;SDS011;30170;52.190;8.702;2022-09-13T01:06:15;2.30;;;1.40;;
44462;SDS011;30170;52.190;8.702;2022-09-13T01:08:46;2.13;;;1.48;;
44462;SDS011;30170;52.190;8.702;2022-09-13T01:13:49;2.90;;;1.80;;
44462;SDS011;30170;52.190;8.702;2022-09-13T01:16:17;2.08;;;1.52;;
44462;SDS011;30170;52.190;8.702;2022-09-13T01:18:44;2.22;;;1.48;;
44462;SDS011;30170;52.190;8.702;2022-09-13T01:32:23;2.03;;;1.42;;
44462;SDS011;30170;52.190;8.702;2022-09-13T01:35:22;1.95;;;1.40;;
44462;SDS011;30170;52.190;8.702;2022-09-13T01:37:58;2.22;;;1.50;;
44462;SDS011;30170;52.190;8.702;2022-09-13T01:40:38;2.33;;;1.55;;
44462;SDS011;30170;52.190;8.702;2022-09-13T01:45:51;1.75;;;1.30;;
44462;SDS011;30170;52.190;8.702;2022-09-13T01:51:20;2.58;;;1.70;;
44462;SDS011;30170;52.190;8.702;2022-09-13T01:54:10;1.90;;;1.38;;
44462;SDS011;30170;52.190;8.702;2022-09-13T02:02:15;2.50;;;1.70;;
44462;SDS011;30170;52.190;8.702;2022-09-13T02:04:49;2.92;;;1.83;;
44462;SDS011;30170;52.190;8.702;2022-09-13T02:07:28;2.45;;;1.20;;
44462;SDS011;30170;52.190;8.702;2022-09-13T02:10:00;1.90;;;1.30;;
44462;SDS011;30170;52.190;8.702;2022-09-13T02:12:32;2.40;;;1.55;;
44462;SDS011;30170;52.190;8.702;2022-09-13T02:15:03;2.08;;;1.38;;
44462;SDS011;30170;52.190;8.702;2022-09-13T02:17:46;2.03;;;1.40;;
44462;SDS011;30170;52.190;8.702;2022-09-13T02:20:27;2.63;;;1.63;;
44462;SDS011;30170;52.190;8.702;2022-09-13T02:22:59;1.98;;;1.40;;
44462;SDS011;30170;52.190;8.702;2022-09-13T02:25:30;2.28;;;1.45;;
44462;SDS011;30170;52.190;8.702;2022-09-13T02:28:02;2.88;;;1.60;;
44462;SDS011;30170;52.190;8.702;2022-09-13T02:30:33;2.20;;;1.48;;
44462;SDS011;30170;52.190;8.702;2022-09-13T02:33:18;2.45;;;1.55;;
44462;SDS011;30170;52.190;8.702;2022-09-13T02:35:55;2.97;;;1.73;;
44462;SDS011;30170;52.190;8.702;2022-09-13T02:38:45;2.15;;;1.45;;
44462;SDS011;30170;52.190;8.702;2022-09-13T02:43:54;2.50;;;1.70;;
44462;SDS011;30170;52.190;8.702;2022-09-13T02:49:33;1.95;;;1.40;;
44462;SDS011;30170;52.190;8.702;2022-09-13T02:54:57;1.98;;;1.20;;
44462;SDS011;30170;52.190;8.702;2022-09-13T02:57:58;2.30;;;1.38;;
44462;SDS011;30170;52.190;8.702;2022-09-13T03:00:37;2.20;;;1.42;;
44462;SDS011;30170;52.190;8.702;2022-09-13T03:03:04;2.00;;;1.40;;
44462;SDS011;30170;52.190;8.702;2022-09-13T03:05:34;2.30;;;1.60;;
44462;SDS011;30170;52.190;8.702;2022-09-13T03:08:01;2.13;;;1.50;;
44462;SDS011;30170;52.190;8.702;2022-09-13T03:10:32;2.40;;;1.55;;
44462;SDS011;30170;52.190;8.702;2022-09-13T03:21:57;2.20;;;1.50;;
44462;SDS011;30170;52.190;8.702;2022-09-13T03:30:05;2.03;;;1.40;;
44462;SDS011;30170;52.190;8.702;2022-09-13T03:32:47;1.98;;;1.38;;
44462;SDS011;30170;52.190;8.702;2022-09-13T03:38:16;2.05;;;1.23;;
44462;SDS011;30170;52.190;8.702;2022-09-13T03:40:47;2.53;;;1.65;;
44462;SDS011;30170;52.190;8.702;2022-09-13T03:43:44;1.92;;;1.30;;
44462;SDS011;30170;52.190;8.702;2022-09-13T03:46:27;2.28;;;1.45;;
44462;SDS011;30170;52.190;8.702;2022-09-13T03:49:09;1.90;;;1.30;;
44462;SDS011;30170;52.190;8.702;2022-09-13T03:51:42;1.75;;;1.20;;
44462;SDS011;30170;52.190;8.702;2022-09-13T03:54:13;2.05;;;1.48;;
44462;SDS011;30170;52.190;8.702;2022-09-13T03:59:34;2.30;;;1.40;;
44462;SDS011;30170;52.190;8.702;2022-09-13T04:02:04;1.52;;;1.33;;
44462;SDS011;30170;52.190;8.702;2022-09-13T04:04:33;1.90;;;1.30;;
44462;SDS011;30170;52.190;8.702;2022-09-13T04:06:59;2.40;;;1.50;;
44462;SDS011;30170;52.190;8.702;2022-09-13T04:09:29;1.70;;;1.35;;
44462;SDS011;30170;52.190;8.702;2022-09-13T04:11:56;2.25;;;1.30;;
44462;SDS011;30170;52.190;8.702;2022-09-13T04:14:23;2.13;;;1.30;;
44462;SDS011;30170;52.190;8.702;2022-09-13T04:16:52;1.90;;;1.23;;
44462;SDS011;30170;52.190;8.702;2022-09-13T04:19:20;2.22;;;1.27;;
44462;SDS011;30170;52.190;8.702;2022-09-13T04:21:48;1.73;;;1.30;;
44462;SDS011;30170;52.190;8.702;2022-09-13T04:24:19;2.17;;;1.52;;
44462;SDS011;30170;52.190;8.702;2022-09-13T04:26:49;2.15;;;1.40;;
44462;SDS011;30170;52.190;8.702;2022-09-13T04:29:16;2.40;;;1.63;;
44462;SDS011;30170;52.190;8.702;2022-09-13T04:31:46;2.17;;;1.52;;
44462;SDS011;30170;52.190;8.702;2022-09-13T04:34:14;2.17;;;1.40;;
44462;SDS011;30170;52.190;8.702;2022-09-13T04:36:43;1.70;;;1.25;;
44462;SDS011;30170;52.190;8.702;2022-09-13T04:39:10;1.73;;;1.23;;
44462;SDS011;30170;52.190;8.702;2022-09-13T04:41:41;2.10;;;1.45;;
44462;SDS011;30170;52.190;8.702;2022-09-13T04:44:11;2.63;;;1.42;;
44462;SDS011;30170;52.190;8.702;2022-09-13T04:46:38;2.35;;;1.52;;
44462;SDS011;30170;52.190;8.702;2022-09-13T04:49:05;1.92;;;1.40;;
44462;SDS011;30170;52.190;8.702;2022-09-13T04:51:32;3.05;;;1.60;;
44462;SDS011;30170;52.190;8.702;2022-09-13T04:53:59;1.95;;;1.50;;
44462;SDS011;30170;52.190;8.702;2022-09-13T04:56:26;2.50;;;1.45;;
44462;SDS011;30170;52.190;8.702;2022-09-13T04:58:53;2.25;;;1.42;;
44462;SDS011;30170;52.190;8.702;2022-09-13T05:01:21;2.30;;;1.42;;
44462;SDS011;30170;52.190;8.702;2022-09-13T05:06:20;2.30;;;1.42;;
44462;SDS011;30170;52.190;8.702;2022-09-13T05:08:49;2.15;;;1.40;;
44462;SDS011;30170;52.190;8.702;2022-09-13T05:11:23;1.90;;;1.40;;
44462;SDS011;30170;52.190;8.702;2022-09-13T05:13:52;1.73;;;1.20;;
44462;SDS011;30170;52.190;8.702;2022-09-13T05:16:22;1.60;;;1.15;;
44462;SDS011;30170;52.190;8.702;2022-09-13T05:18:50;2.33;;;1.58;;
44462;SDS011;30170;52.190;8.702;2022-09-13T05:21:18;1.98;;;1.30;;
44462;SDS011;30170;52.190;8.702;2022-09-13T05:23:49;2.35;;;1.42;;
44462;SDS011;30170;52.190;8.702;2022-09-13T05:26:17;2.08;;;1.40;;
44462;SDS011;30170;52.190;8.702;2022-09-13T05:28:44;2.03;;;1.40;;
44462;SDS011;30170;52.190;8.702;2022-09-13T05:31:16;2.13;;;1.35;;
44462;SDS011;30170;52.190;8.702;2022-09-13T05:33:45;2.30;;;1.50;;
44462;SDS011;30170;52.190;8.702;2022-09-13T05:36:14;2.70;;;1.52;;
44462;SDS011;30170;52.190;8.702;2022-09-13T05:38:40;1.25;;;1.02;;
44462;SDS011;30170;52.190;8.702;2022-09-13T05:41:07;2.10;;;1.60;;
44462;SDS011;30170;52.190;8.702;2022-09-13T05:43:34;2.47;;;1.50;;
44462;SDS011;30170;52.190;8.702;2022-09-13T05:48:33;2.10;;;1.30;;
44462;SDS011;30170;52.190;8.702;2022-09-13T05:51:19;1.67;;;1.33;;
44462;SDS011;30170;52.190;8.702;2022-09-13T05:53:49;1.98;;;1.40;;
44462;SDS011;30170;52.190;8.702;2022-09-13T05:56:18;2.33;;;1.50;;
44462;SDS011;30170;52.190;8.702;2022-09-13T05:58:50;2.22;;;1.65;;
44462;SDS011;30170;52.190;8.702;2022-09-13T06:01:21;1.90;;;1.20;;
44462;SDS011;30170;52.190;8.702;2022-09-13T06:03:50;1.85;;;1.30;;
44462;SDS011;30170;52.190;8.702;2022-09-13T06:06:20;2.30;;;1.50;;
44462;SDS011;30170;52.190;8.702;2022-09-13T06:08:50;2.00;;;1.38;;
44462;SDS011;30170;52.190;8.702;2022-09-13T06:11:18;1.92;;;1.20;;
44462;SDS011;30170;52.190;8.702;2022-09-13T06:13:45;2.38;;;1.40;;
44462;SDS011;30170;52.190;8.702;2022-09-13T06:16:12;2.22;;;1.48;;
44462;SDS011;30170;52.190;8.702;2022-09-13T06:18:42;1.80;;;1.30;;
44462;SDS011;30170;52.190;8.702;2022-09-13T06:21:10;1.95;;;1.27;;
44462;SDS011;30170;52.190;8.702;2022-09-13T06:23:46;2.10;;;1.30;;
44462;SDS011;30170;52.190;8.702;2022-09-13T06:26:15;2.05;;;1.27;;
44462;SDS011;30170;52.190;8.702;2022-09-13T06:28:46;2.33;;;1.30;;
44462;SDS011;30170;52.190;8.702;2022-09-13T06:31:14;4.90;;;2.55;;
44462;SDS011;30170;52.190;8.702;2022-09-13T06:33:42;4.63;;;3.13;;
44462;SDS011;30170;52.190;8.702;2022-09-13T06:36:14;4.90;;;3.13;;
44462;SDS011;30170;52.190;8.702;2022-09-13T06:38:45;4.43;;;3.03;;
44462;SDS011;30170;52.190;8.702;2022-09-13T06:41:20;7.78;;;4.00;;
44462;SDS011;30170;52.190;8.702;2022-09-13T06:43:55;5.70;;;4.00;;
44462;SDS011;30170;52.190;8.702;2022-09-13T06:46:24;5.07;;;3.40;;
44462;SDS011;30170;52.190;8.702;2022-09-13T06:48:52;5.15;;;3.38;;
44462;SDS011;30170;52.190;8.702;2022-09-13T06:51:21;6.50;;;4.03;;
44462;SDS011;30170;52.190;8.702;2022-09-13T06:53:50;7.00;;;3.53;;
44462;SDS011;30170;52.190;8.702;2022-09-13T06:56:19;6.45;;;3.83;;
44462;SDS011;30170;52.190;8.702;2022-09-13T06:58:50;5.18;;;3.63;;
44462;SDS011;30170;52.190;8.702;2022-09-13T07:01:21;7.53;;;3.92;;
44462;SDS011;30170;52.190;8.702;2022-09-13T07:03:53;6.20;;;3.88;;
44462;SDS011;30170;52.190;8.702;2022-09-13T07:06:25;6.50;;;4.70;;
44462;SDS011;30170;52.190;8.702;2022-09-13T07:08:54;9.32;;;4.20;;
44462;SDS011;30170;52.190;8.702;2022-09-13T07:11:23;8.23;;;4.13;;
44462;SDS011;30170;52.190;8.702;2022-09-13T07:13:52;6.05;;;3.95;;
44462;SDS011;30170;52.190;8.702;2022-09-13T07:16:22;6.38;;;3.95;;
44462;SDS011;30170;52.190;8.702;2022-09-13T07:18:54;4.82;;;3.60;;
44462;SDS011;30170;52.190;8.702;2022-09-13T07:21:22;5.32;;;3.90;;
44462;SDS011;30170;52.190;8.702;2022-09-13T07:23:50;7.25;;;4.38;;
44462;SDS011;30170;52.190;8.702;2022-09-13T07:26:18;8.98;;;4.13;;
44462;SDS011;30170;52.190;8.702;2022-09-13T07:28:46;6.20;;;3.67;;
44462;SDS011;30170;52.190;8.702;2022-09-13T07:31:18;7.20;;;3.90;;
44462;SDS011;30170;52.190;8.702;2022-09-13T07:33:51;7.32;;;4.28;;
44462;SDS011;30170;52.190;8.702;2022-09-13T07:36:21;6.72;;;4.50;;
44462;SDS011;30170;52.190;8.702;2022-09-13T07:38:48;10.50;;;5.68;;
44462;SDS011;30170;52.190;8.702;2022-09-13T07:41:21;9.68;;;5.38;;
44462;SDS011;30170;52.190;8.702;2022-09-13T07:43:49;8.07;;;4.50;;
44462;SDS011;30170;52.190;8.702;2022-09-13T07:46:18;7.95;;;5.15;;
44462;SDS011;30170;52.190;8.702;2022-09-13T07:48:51;12.43;;;5.70;;
44462;SDS011;30170;52.190;8.702;2022-09-13T07:51:20;10.10;;;5.20;;
44462;SDS011;30170;52.190;8.702;2022-09-13T07:53:50;7.57;;;4.88;;
44462;SDS011;30170;52.190;8.702;2022-09-13T07:56:32;7.47;;;5.28;;
44462;SDS011;30170;52.190;8.702;2022-09-13T07:59:01;12.05;;;5.53;;
44462;SDS011;30170;52.190;8.702;2022-09-13T08:01:33;9.88;;;5.88;;
44462;SDS011;30170;52.190;8.702;2022-09-13T08:04:01;8.57;;;5.05;;
44462;SDS011;30170;52.190;8.702;2022-09-13T08:06:30;10.95;;;5.20;;
44462;SDS011;30170;52.190;8.702;2022-09-13T08:08:58;9.57;;;5.75;;
44462;SDS011;30170;52.190;8.702;2022-09-13T08:11:29;9.25;;;5.25;;
44462;SDS011;30170;52.190;8.702;2022-09-13T08:13:56;9.95;;;5.57;;
44462;SDS011;30170;52.190;8.702;2022-09-13T08:16:24;13.68;;;5.55;;
44462;SDS011;30170;52.190;8.702;2022-09-13T08:18:52;12.50;;;5.90;;
44462;SDS011;30170;52.190;8.702;2022-09-13T08:21:20;10.38;;;6.03;;
44462;SDS011;30170;52.190;8.702;2022-09-13T08:23:48;12.77;;;5.47;;
44462;SDS011;30170;52.190;8.702;2022-09-13T08:26:19;8.10;;;4.70;;
44462;SDS011;30170;52.190;8.702;2022-09-13T08:28:45;9.18;;;6.15;;
44462;SDS011;30170;52.190;8.702;2022-09-13T08:31:16;9.98;;;6.22;;
44462;SDS011;30170;52.190;8.702;2022-09-13T08:33:45;12.15;;;6.95;;
44462;SDS011;30170;52.190;8.702;2022-09-13T08:36:14;12.57;;;6.10;;
44462;SDS011;30170;52.190;8.702;2022-09-13T08:38:50;13.07;;;7.13;;
44462;SDS011;30170;52.190;8.702;2022-09-13T08:44:27;12.00;;;6.90;;
44462;SDS011;30170;52.190;8.702;2022-09-13T08:47:01;11.82;;;6.72;;
44462;SDS011;30170;52.190;8.702;2022-09-13T08:49:48;11.45;;;6.65;;
44462;SDS011;30170;52.190;8.702;2022-09-13T08:52:31;9.38;;;6.25;;
44462;SDS011;30170;52.190;8.702;2022-09-13T08:55:04;10.85;;;6.35;;
44462;SDS011;30170;52.190;8.702;2022-09-13T08:57:58;9.73;;;6.65;;
44462;SDS011;30170;52.190;8.702;2022-09-13T09:00:43;11.70;;;6.95;;
44462;SDS011;30170;52.190;8.702;2022-09-13T09:05:54;14.13;;;7.40;;
44462;SDS011;30170;52.190;8.702;2022-09-13T09:08:38;12.77;;;7.35;;
44462;SDS011;30170;52.190;8.702;2022-09-13T09:11:09;12.38;;;7.60;;
44462;SDS011;30170;52.190;8.702;2022-09-13T09:16:51;13.02;;;7.22;;
44462;SDS011;30170;52.190;8.702;2022-09-13T09:22:31;14.98;;;7.10;;
44462;SDS011;30170;52.190;8.702;2022-09-13T09:25:01;9.55;;;6.50;;
44462;SDS011;30170;52.190;8.702;2022-09-13T09:27:29;11.15;;;6.45;;
44462;SDS011;30170;52.190;8.702;2022-09-13T09:29:56;10.00;;;6.03;;
44462;SDS011;30170;52.190;8.702;2022-09-13T09:32:32;10.10;;;6.13;;
44462;SDS011;30170;52.190;8.702;2022-09-13T09:38:34;9.32;;;5.82;;
44462;SDS011;30170;52.190;8.702;2022-09-13T09:41:05;10.80;;;6.20;;
44462;SDS011;30170;52.190;8.702;2022-09-13T09:43:44;11.70;;;6.57;;
44462;SDS011;30170;52.190;8.702;2022-09-13T09:46:15;10.55;;;6.82;;
44462;SDS011;30170;52.190;8.702;2022-09-13T09:48:44;10.73;;;6.82;;
44462;SDS011;30170;52.190;8.702;2022-09-13T09:51:17;10.15;;;6.03;;
44462;SDS011;30170;52.190;8.702;2022-09-13T09:53:47;9.48;;;6.43;;
44462;SDS011;30170;52.190;8.702;2022-09-13T09:56:22;10.50;;;6.78;;
44462;SDS011;30170;52.190;8.702;2022-09-13T09:58:51;10.20;;;6.10;;
44462;SDS011;30170;52.190;8.702;2022-09-13T10:01:23;11.10;;;6.28;;
44462;SDS011;30170;52.190;8.702;2022-09-13T10:06:19;11.38;;;5.72;;
44462;SDS011;30170;52.190;8.702;2022-09-13T10:19:49;10.07;;;6.45;;
44462;SDS011;30170;52.190;8.702;2022-09-13T10:22:27;14.88;;;6.68;;
44462;SDS011;30170;52.190;8.702;2022-09-13T10:30:40;9.52;;;6.05;;
44462;SDS011;30170;52.190;8.702;2022-09-13T10:33:17;13.98;;;5.80;;
44462;SDS011;30170;52.190;8.702;2022-09-13T10:35:49;10.57;;;6.07;;
44462;SDS011;30170;52.190;8.702;2022-09-13T10:38:23;12.75;;;6.28;;
44462;SDS011;30170;52.190;8.702;2022-09-13T10:41:08;8.48;;;5.75;;
44462;SDS011;30170;52.190;8.702;2022-09-13T10:43:45;9.13;;;5.38;;
44462;SDS011;30170;52.190;8.702;2022-09-13T10:46:13;8.43;;;4.88;;
44462;SDS011;30170;52.190;8.702;2022-09-13T10:48:47;9.32;;;4.57;;
44462;SDS011;30170;52.190;8.702;2022-09-13T10:54:11;7.43;;;4.20;;
44462;SDS011;30170;52.190;8.702;2022-09-13T10:56:48;11.43;;;4.93;;
44462;SDS011;30170;52.190;8.702;2022-09-13T10:59:20;7.60;;;5.53;;
44462;SDS011;30170;52.190;8.702;2022-09-13T11:02:05;7.53;;;4.20;;
44462;SDS011;30170;52.190;8.702;2022-09-13T11:13:26;9.35;;;4.80;;
44462;SDS011;30170;52.190;8.702;2022-09-13T11:24:57;10.25;;;6.20;;
44462;SDS011;30170;52.190;8.702;2022-09-13T11:30:19;15.45;;;5.65;;
44462;SDS011;30170;52.190;8.702;2022-09-13T11:35:30;9.52;;;5.47;;
44462;SDS011;30170;52.190;8.702;2022-09-13T11:41:17;7.30;;;4.30;;
44462;SDS011;30170;52.190;8.702;2022-09-13T11:44:01;6.32;;;3.60;;
44462;SDS011;30170;52.190;8.702;2022-09-13T11:47:06;6.05;;;3.85;;
44462;SDS011;30170;52.190;8.702;2022-09-13T11:52:33;9.55;;;4.40;;
44462;SDS011;30170;52.190;8.702;2022-09-13T11:57:56;5.78;;;3.50;;
44462;SDS011;30170;52.190;8.702;2022-09-13T12:00:30;6.10;;;3.90;;
44462;SDS011;30170;52.190;8.702;2022-09-13T12:05:58;6.20;;;4.60;;
44462;SDS011;30170;52.190;8.702;2022-09-13T12:08:28;7.25;;;4.20;;
44462;SDS011;30170;52.190;8.702;2022-09-13T12:11:05;9.68;;;5.00;;
44462;SDS011;30170;52.190;8.702;2022-09-13T12:13:51;7.18;;;4.68;;
44462;SDS011;30170;52.190;8.702;2022-09-13T12:16:25;6.82;;;4.97;;
44462;SDS011;30170;52.190;8.702;2022-09-13T12:19:13;7.05;;;4.60;;
44462;SDS011;30170;52.190;8.702;2022-09-13T12:21:55;7.45;;;5.40;;
44462;SDS011;30170;52.190;8.702;2022-09-13T12:24:42;7.43;;;5.13;;
44462;SDS011;30170;52.190;8.702;2022-09-13T12:27:30;7.60;;;5.55;;
44462;SDS011;30170;52.190;8.702;2022-09-13T12:32:39;8.55;;;5.40;;
44462;SDS011;30170;52.190;8.702;2022-09-13T12:35:08;8.07;;;5.47;;
44462;SDS011;30170;52.190;8.702;2022-09-13T12:43:11;8.55;;;6.30;;
44462;SDS011;30170;52.190;8.702;2022-09-13T12:45:45;8.65;;;6.07;;
44462;SDS011;30170;52.190;8.702;2022-09-13T12:51:29;7.57;;;5.90;;
44462;SDS011;30170;52.190;8.702;2022-09-13T13:05:27;7.43;;;4.90;;
44462;SDS011;30170;52.190;8.702;2022-09-13T13:10:34;6.45;;;4.85;;
44462;SDS011;30170;52.190;8.702;2022-09-13T13:13:21;6.70;;;4.38;;
44462;SDS011;30170;52.190;8.702;2022-09-13T13:16:00;5.63;;;4.35;;
44462;SDS011;30170;52.190;8.702;2022-09-13T13:18:46;4.82;;;3.90;;
44462;SDS011;30170;52.190;8.702;2022-09-13T13:21:26;5.68;;;3.85;;
44462;SDS011;30170;52.190;8.702;2022-09-13T13:31:44;6.72;;;4.40;;
44462;SDS011;30170;52.190;8.702;2022-09-13T13:39:08;5.03;;;4.13;;
44462;SDS011;30170;52.190;8.702;2022-09-13T13:41:59;6.15;;;3.85;;
44462;SDS011;30170;52.190;8.702;2022-09-13T13:59:51;4.80;;;3.40;;
44462;SDS011;30170;52.190;8.702;2022-09-13T14:08:00;3.10;;;2.15;;
44462;SDS011;30170;52.190;8.702;2022-09-13T14:13:44;2.33;;;1.70;;
44462;SDS011;30170;52.190;8.702;2022-09-13T14:16:42;3.15;;;1.80;;
44462;SDS011;30170;52.190;8.702;2022-09-13T14:19:19;2.33;;;1.50;;
44462;SDS011;30170;52.190;8.702;2022-09-13T14:24:43;3.45;;;1.63;;
44462;SDS011;30170;52.190;8.702;2022-09-13T14:29:57;4.50;;;1.80;;
44462;SDS011;30170;52.190;8.702;2022-09-13T14:32:26;2.83;;;1.60;;
44462;SDS011;30170;52.190;8.702;2022-09-13T14:35:06;3.33;;;1.40;;
44462;SDS011;30170;52.190;8.702;2022-09-13T14:37:48;2.22;;;1.45;;
44462;SDS011;30170;52.190;8.702;2022-09-13T14:40:17;3.20;;;1.50;;
44462;SDS011;30170;52.190;8.702;2022-09-13T14:42:54;2.47;;;1.48;;
44462;SDS011;30170;52.190;8.702;2022-09-13T14:45:29;2.72;;;1.30;;
44462;SDS011;30170;52.190;8.702;2022-09-13T14:48:09;2.40;;;1.40;;
44462;SDS011;30170;52.190;8.702;2022-09-13T14:50:39;3.40;;;1.50;;
44462;SDS011;30170;52.190;8.702;2022-09-13T14:53:18;5.82;;;1.67;;
44462;SDS011;30170;52.190;8.702;2022-09-13T14:55:48;4.15;;;1.30;;
44462;SDS011;30170;52.190;8.702;2022-09-13T14:58:24;1.73;;;1.25;;
44462;SDS011;30170;52.190;8.702;2022-09-13T15:00:57;2.00;;;1.30;;
44462;SDS011;30170;52.190;8.702;2022-09-13T15:03:26;2.17;;;1.40;;
44462;SDS011;30170;52.190;8.702;2022-09-13T15:05:57;2.40;;;1.52;;
44462;SDS011;30170;52.190;8.702;2022-09-13T15:10:52;4.45;;;1.60;;
44462;SDS011;30170;52.190;8.702;2022-09-13T15:13:22;2.25;;;1.33;;
44462;SDS011;30170;52.190;8.702;2022-09-13T15:15:49;3.05;;;1.50;;
44462;SDS011;30170;52.190;8.702;2022-09-13T15:23:20;2.70;;;1.80;;
44462;SDS011;30170;52.190;8.702;2022-09-13T15:26:00;3.92;;;1.58;;
44462;SDS011;30170;52.190;8.702;2022-09-13T15:28:33;2.67;;;1.63;;
44462;SDS011;30170;52.190;8.702;2022-09-13T15:31:28;2.67;;;1.40;;
44462;SDS011;30170;52.190;8.702;2022-09-13T15:34:10;3.22;;;1.40;;
44462;SDS011;30170;52.190;8.702;2022-09-13T15:36:40;3.40;;;1.23;;
44462;SDS011;30170;52.190;8.702;2022-09-13T15:41:35;2.80;;;1.20;;
44462;SDS011;30170;52.190;8.702;2022-09-13T15:44:07;5.78;;;1.67;;
44462;SDS011;30170;52.190;8.702;2022-09-13T15:46:36;2.08;;;1.35;;
44462;SDS011;30170;52.190;8.702;2022-09-13T15:49:15;1.60;;;1.30;;
44462;SDS011;30170;52.190;8.702;2022-09-13T15:51:43;1.55;;;1.20;;
44462;SDS011;30170;52.190;8.702;2022-09-13T15:54:11;2.70;;;1.35;;
44462;SDS011;30170;52.190;8.702;2022-09-13T15:56:43;3.55;;;1.55;;
44462;SDS011;30170;52.190;8.702;2022-09-13T15:59:15;3.60;;;1.10;;
44462;SDS011;30170;52.190;8.702;2022-09-13T16:01:46;2.92;;;1.30;;
44462;SDS011;30170;52.190;8.702;2022-09-13T16:04:14;3.03;;;1.33;;
44462;SDS011;30170;52.190;8.702;2022-09-13T16:06:41;3.50;;;1.67;;
44462;SDS011;30170;52.190;8.702;2022-09-13T16:09:19;2.05;;;1.30;;
44462;SDS011;30170;52.190;8.702;2022-09-13T16:11:49;2.58;;;1.52;;
44462;SDS011;30170;52.190;8.702;2022-09-13T16:14:17;1.92;;;1.45;;
44462;SDS011;30170;52.190;8.702;2022-09-13T16:16:44;1.83;;;1.40;;
44462;SDS011;30170;52.190;8.702;2022-09-13T16:19:15;1.95;;;1.40;;
44462;SDS011;30170;52.190;8.702;2022-09-13T16:21:43;2.15;;;1.35;;
44462;SDS011;30170;52.190;8.702;2022-09-13T16:24:11;2.45;;;1.33;;
44462;SDS011;30170;52.190;8.702;2022-09-13T16:26:38;1.67;;;1.30;;
44462;SDS011;30170;52.190;8.702;2022-09-13T16:29:05;2.15;;;1.40;;
44462;SDS011;30170;52.190;8.702;2022-09-13T16:31:32;1.70;;;1.30;;
44462;SDS011;30170;52.190;8.702;2022-09-13T16:33:59;1.90;;;1.38;;
44462;SDS011;30170;52.190;8.702;2022-09-13T16:36:26;1.67;;;1.20;;
44462;SDS011;30170;52.190;8.702;2022-09-13T16:38:54;1.77;;;1.30;;
44462;SDS011;30170;52.190;8.702;2022-09-13T16:41:22;2.60;;;1.48;;
44462;SDS011;30170;52.190;8.702;2022-09-13T16:43:49;3.28;;;1.42;;
44462;SDS011;30170;52.190;8.702;2022-09-13T16:46:15;2.13;;;1.40;;
44462;SDS011;30170;52.190;8.702;2022-09-13T16:48:43;1.92;;;1.20;;
44462;SDS011;30170;52.190;8.702;2022-09-13T16:51:10;2.53;;;1.45;;
44462;SDS011;30170;52.190;8.702;2022-09-13T16:53:39;2.25;;;1.30;;
44462;SDS011;30170;52.190;8.702;2022-09-13T16:56:17;2.55;;;1.13;;
44462;SDS011;30170;52.190;8.702;2022-09-13T16:58:46;2.05;;;1.40;;
44462;SDS011;30170;52.190;8.702;2022-09-13T17:01:18;3.42;;;1.20;;
44462;SDS011;30170;52.190;8.702;2022-09-13T17:03:49;2.30;;;1.08;;
44462;SDS011;30170;52.190;8.702;2022-09-13T17:06:20;2.13;;;1.30;;
44462;SDS011;30170;52.190;8.702;2022-09-13T17:08:49;1.58;;;1.13;;
44462;SDS011;30170;52.190;8.702;2022-09-13T17:11:19;3.25;;;1.50;;
44462;SDS011;30170;52.190;8.702;2022-09-13T17:13:48;2.20;;;1.40;;
44462;SDS011;30170;52.190;8.702;2022-09-13T17:16:19;1.42;;;1.08;;
44462;SDS011;30170;52.190;8.702;2022-09-13T17:18:49;1.95;;;1.60;;
44462;SDS011;30170;52.190;8.702;2022-09-13T17:21:16;2.30;;;1.27;;
44462;SDS011;30170;52.190;8.702;2022-09-13T17:23:44;4.05;;;1.40;;
44462;SDS011;30170;52.190;8.702;2022-09-13T17:26:10;2.33;;;1.30;;
44462;SDS011;30170;52.190;8.702;2022-09-13T17:28:37;1.65;;;1.25;;
44462;SDS011;30170;52.190;8.702;2022-09-13T17:31:04;2.55;;;1.40;;
44462;SDS011;30170;52.190;8.702;2022-09-13T17:33:31;1.40;;;1.20;;
44462;SDS011;30170;52.190;8.702;2022-09-13T17:36:08;1.40;;;1.10;;
44462;SDS011;30170;52.190;8.702;2022-09-13T17:38:37;1.85;;;1.30;;
44462;SDS011;30170;52.190;8.702;2022-09-13T17:41:09;1.98;;;1.27;;
44462;SDS011;30170;52.190;8.702;2022-09-13T17:43:37;1.40;;;1.10;;
44462;SDS011;30170;52.190;8.702;2022-09-13T17:46:10;2.13;;;1.30;;
44462;SDS011;30170;52.190;8.702;2022-09-13T17:48:39;2.35;;;1.27;;
44462;SDS011;30170;52.190;8.702;2022-09-13T17:51:08;2.80;;;1.23;;
44462;SDS011;30170;52.190;8.702;2022-09-13T17:53:37;3.50;;;1.30;;
44462;SDS011;30170;52.190;8.702;2022-09-13T17:56:08;2.85;;;1.20;;
44462;SDS011;30170;52.190;8.702;2022-09-13T17:58:35;3.33;;;1.58;;
44462;SDS011;30170;52.190;8.702;2022-09-13T18:01:03;2.95;;;1.40;;
44462;SDS011;30170;52.190;8.702;2022-09-13T18:03:31;1.95;;;1.40;;
44462;SDS011;30170;52.190;8.702;2022-09-13T18:05:59;1.77;;;1.20;;
44462;SDS011;30170;52.190;8.702;2022-09-13T18:08:27;3.30;;;1.13;;
44462;SDS011;30170;52.190;8.702;2022-09-13T18:11:00;2.50;;;1.30;;
44462;SDS011;30170;52.190;8.702;2022-09-13T18:13:39;3.20;;;1.40;;
44462;SDS011;30170;52.190;8.702;2022-09-13T18:16:08;2.28;;;1.40;;
44462;SDS011;30170;52.190;8.702;2022-09-13T18:18:37;2.38;;;1.33;;
44462;SDS011;30170;52.190;8.702;2022-09-13T18:21:09;2.65;;;1.17;;
44462;SDS011;30170;52.190;8.702;2022-09-13T18:23:36;2.00;;;1.20;;
44462;SDS011;30170;52.190;8.702;2022-09-13T18:26:04;2.47;;;1.30;;
44462;SDS011;30170;52.190;8.702;2022-09-13T18:28:36;1.85;;;1.33;;
44462;SDS011;30170;52.190;8.702;2022-09-13T18:31:04;1.42;;;1.00;;
44462;SDS011;30170;52.190;8.702;2022-09-13T18:33:34;2.40;;;1.40;;
44462;SDS011;30170;52.190;8.702;2022-09-13T18:38:36;1.77;;;1.30;;
44462;SDS011;30170;52.190;8.702;2022-09-13T18:41:05;2.08;;;1.20;;
44462;SDS011;30170;52.190;8.702;2022-09-13T18:43:37;2.60;;;1.42;;
44462;SDS011;30170;52.190;8.702;2022-09-13T18:46:06;2.65;;;1.23;;